Time;durP1;ratioP1;P1;durP2;ratioP2;P2;SDS_P1;SDS_P2;PMS_P1;PMS_P2;Temp;Humidity;BMP_temperature;BMP_pressure;BME280_temperature;BME280_humidity;BME280_pressure;Samples;Min_cycle;Max_cycle;Signal;HPM_P1;HPM_P2
2021/11/04 00:00:42;;;;;;;16.58;7.75;;;7.10;93.90;;;;;;2083215;28;20514;-91
2021/11/04 00:01:43;;;;;;;13.68;8.00;;;7.10;93.90;;;;;;2081918;28;20348;-91
2021/11/04 00:02:44;;;;;;;13.20;7.22;;;7.00;93.90;;;;;;2073760;28;20468;-90
2021/11/04 00:03:45;;;;;;;21.85;8.13;;;7.00;93.90;;;;;;2073379;28;20040;-91
2021/11/04 00:04:46;;;;;;;12.98;8.52;;;7.00;93.90;;;;;;2074465;28;20046;-90
2021/11/04 00:05:46;;;;;;;17.30;8.40;;;7.00;93.90;;;;;;2074948;28;20060;-91
2021/11/04 00:06:47;;;;;;;14.32;8.25;;;7.00;93.90;;;;;;2074937;28;20037;-90
2021/11/04 00:07:50;;;;;;;13.30;7.90;;;7.00;93.90;;;;;;2066904;28;20523;-91
2021/11/04 00:08:51;;;;;;;19.85;7.85;;;7.00;94.00;;;;;;2067186;28;20029;-91
2021/11/04 00:09:52;;;;;;;17.27;8.27;;;7.00;94.00;;;;;;2075039;28;20404;-90
2021/11/04 00:10:53;;;;;;;14.50;8.02;;;6.90;94.00;;;;;;2075012;28;20468;-91
2021/11/04 00:11:54;;;;;;;14.63;7.70;;;6.90;93.90;;;;;;2069461;28;20129;-91
2021/11/04 00:12:55;;;;;;;14.25;8.18;;;6.90;94.00;;;;;;2068487;28;20142;-91
2021/11/04 00:13:55;;;;;;;13.23;7.53;;;6.90;94.00;;;;;;2086819;28;20113;-91
2021/11/04 00:14:56;;;;;;;13.32;7.15;;;6.90;94.00;;;;;;2081499;28;20034;-91
2021/11/04 00:15:57;;;;;;;12.40;7.72;;;6.90;94.00;;;;;;2086666;28;20130;-91
2021/11/04 00:16:57;;;;;;;13.20;7.90;;;6.90;94.10;;;;;;2086355;28;20045;-88
2021/11/04 00:17:59;;;;;;;13.45;7.53;;;6.90;94.10;;;;;;2086196;28;20030;-88
2021/11/04 00:19:01;;;;;;;12.30;7.63;;;6.90;94.10;;;;;;2078633;28;20026;-88
2021/11/04 00:20:03;;;;;;;13.65;8.02;;;7.00;94.10;;;;;;2084788;28;20054;-88
2021/11/04 00:21:04;;;;;;;12.95;7.85;;;7.00;94.10;;;;;;2093298;28;20025;-84
2021/11/04 00:22:05;;;;;;;12.20;7.55;;;6.90;94.00;;;;;;2075235;28;20025;-89
2021/11/04 00:23:05;;;;;;;13.40;7.43;;;7.00;94.10;;;;;;2065866;28;20483;-91
2021/11/04 00:24:06;;;;;;;11.23;7.43;;;7.00;94.10;;;;;;2058908;28;20045;-91
2021/11/04 00:25:07;;;;;;;12.27;7.38;;;7.00;94.00;;;;;;2066609;28;20129;-90
2021/11/04 00:26:08;;;;;;;12.80;6.70;;;7.00;94.00;;;;;;2066968;28;20034;-90
2021/11/04 00:27:09;;;;;;;11.38;7.22;;;7.10;94.00;;;;;;2066468;28;20512;-90
2021/11/04 00:28:09;;;;;;;12.00;7.30;;;7.00;94.00;;;;;;2058010;28;20528;-91
2021/11/04 00:29:10;;;;;;;11.98;7.15;;;7.00;94.00;;;;;;2053866;28;20122;-90
2021/11/04 00:30:12;;;;;;;11.70;6.88;;;7.00;94.00;;;;;;2062928;28;20548;-90
2021/11/04 00:31:13;;;;;;;11.40;7.38;;;7.10;93.90;;;;;;2066694;28;20094;-91
2021/11/04 00:32:14;;;;;;;11.50;7.20;;;7.00;93.90;;;;;;2067952;28;20034;-91
2021/11/04 00:33:15;;;;;;;12.55;7.35;;;7.00;93.90;;;;;;2066077;28;20053;-91
2021/11/04 00:34:16;;;;;;;11.38;6.75;;;7.00;93.90;;;;;;2067185;28;20026;-90
2021/11/04 00:35:17;;;;;;;13.80;7.35;;;7.00;93.90;;;;;;2065512;28;20133;-90
2021/11/04 00:36:19;;;;;;;17.15;7.32;;;7.10;93.90;;;;;;2074627;28;20100;-90
2021/11/04 00:37:20;;;;;;;12.32;6.88;;;7.00;93.90;;;;;;2063300;28;20031;-90
2021/11/04 00:38:21;;;;;;;12.32;7.30;;;7.00;93.90;;;;;;2058181;28;20521;-90
2021/11/04 00:39:21;;;;;;;11.02;7.00;;;7.00;93.90;;;;;;2066414;28;20042;-90
2021/11/04 00:40:23;;;;;;;13.55;7.30;;;7.00;93.90;;;;;;2058545;28;20071;-90
2021/11/04 00:41:24;;;;;;;12.93;6.82;;;7.00;94.20;;;;;;2067203;28;20039;-90
2021/11/04 00:42:24;;;;;;;13.38;7.65;;;7.00;93.90;;;;;;2074393;28;20044;-91
2021/11/04 00:43:25;;;;;;;13.32;7.43;;;7.00;93.90;;;;;;2061841;28;20121;-90
2021/11/04 00:44:25;;;;;;;11.73;6.80;;;7.00;93.90;;;;;;2058191;28;20043;-91
2021/11/04 00:45:27;;;;;;;10.63;6.53;;;7.00;93.90;;;;;;2061006;28;20567;-91
2021/11/04 00:46:30;;;;;;;11.40;7.20;;;7.00;93.90;;;;;;2059580;28;20035;-90
2021/11/04 00:47:31;;;;;;;11.55;7.15;;;7.00;93.90;;;;;;2067268;28;20105;-91
2021/11/04 00:48:32;;;;;;;11.25;7.03;;;7.00;93.90;;;;;;2057569;28;20122;-91
2021/11/04 00:49:33;;;;;;;11.98;7.22;;;7.00;93.90;;;;;;2066281;28;20034;-91
2021/11/04 00:50:34;;;;;;;10.98;6.97;;;7.00;93.90;;;;;;2066969;28;20445;-90
2021/11/04 00:51:34;;;;;;;12.65;7.05;;;7.00;93.90;;;;;;2066626;28;20066;-91
2021/11/04 00:52:35;;;;;;;13.77;7.15;;;7.00;93.90;;;;;;2067411;28;20069;-91
2021/11/04 00:53:36;;;;;;;11.95;6.78;;;7.00;93.90;;;;;;2058018;28;20046;-91
2021/11/04 00:54:37;;;;;;;16.27;6.65;;;7.00;93.90;;;;;;2065547;28;20197;-91
2021/11/04 00:55:37;;;;;;;14.27;7.63;;;7.00;93.90;;;;;;2066150;28;20042;-91
2021/11/04 00:56:38;;;;;;;15.88;6.97;;;7.00;93.80;;;;;;2066344;28;20038;-91
2021/11/04 00:57:39;;;;;;;19.42;7.00;;;6.90;93.80;;;;;;2058084;28;20038;-90
2021/11/04 00:58:40;;;;;;;12.48;6.70;;;6.90;93.80;;;;;;2062664;28;20030;-90
2021/11/04 00:59:40;;;;;;;14.38;6.93;;;6.90;93.80;;;;;;2065964;28;20042;-91
2021/11/04 01:00:41;;;;;;;11.70;6.85;;;6.90;93.90;;;;;;2074432;28;20412;-91
2021/11/04 01:01:42;;;;;;;12.98;7.65;;;6.80;93.90;;;;;;2061307;28;20102;-90
2021/11/04 01:02:43;;;;;;;10.70;6.82;;;6.80;93.90;;;;;;2049519;28;20058;-91
2021/11/04 01:03:44;;;;;;;11.00;7.40;;;6.80;94.00;;;;;;2055593;28;20141;-90
2021/11/04 01:04:45;;;;;;;13.05;7.05;;;6.80;94.00;;;;;;2066253;28;20039;-91
2021/11/04 01:05:45;;;;;;;11.80;6.93;;;6.80;94.10;;;;;;2074048;28;20118;-90
2021/11/04 01:06:46;;;;;;;15.25;6.90;;;6.80;94.10;;;;;;2073998;28;20084;-90
2021/11/04 01:07:47;;;;;;;12.77;7.53;;;6.80;94.10;;;;;;2071490;28;20056;-90
2021/11/04 01:08:51;;;;;;;11.48;7.03;;;6.80;94.40;;;;;;2079392;28;20470;-91
2021/11/04 01:09:51;;;;;;;11.55;6.72;;;6.80;94.10;;;;;;2066148;28;20051;-90
2021/11/04 01:10:53;;;;;;;12.15;6.88;;;6.80;94.10;;;;;;2050042;28;20051;-90
2021/11/04 01:11:54;;;;;;;12.52;6.68;;;6.80;94.10;;;;;;2065982;28;20050;-91
2021/11/04 01:12:55;;;;;;;11.00;6.38;;;6.80;94.10;;;;;;2066792;28;20528;-90
2021/11/04 01:13:55;;;;;;;11.88;7.00;;;6.80;94.00;;;;;;2069331;28;20517;-90
2021/11/04 01:14:56;;;;;;;14.43;7.25;;;6.80;94.00;;;;;;2057526;28;20178;-90
2021/11/04 01:15:57;;;;;;;11.15;6.70;;;6.90;94.00;;;;;;2050683;28;20134;-90
2021/11/04 01:16:57;;;;;;;16.30;7.18;;;6.80;94.00;;;;;;2061433;28;20031;-90
2021/11/04 01:17:58;;;;;;;20.17;6.47;;;6.80;94.00;;;;;;2062190;28;20076;-91
2021/11/04 01:18:59;;;;;;;19.58;6.63;;;6.80;94.00;;;;;;2058232;28;20053;-90
2021/11/04 01:20:00;;;;;;;33.55;7.00;;;6.80;94.00;;;;;;2066147;28;20343;-89
2021/11/04 01:21:00;;;;;;;13.10;6.30;;;6.70;94.00;;;;;;2066200;28;20125;-90
2021/11/04 01:22:01;;;;;;;15.48;6.03;;;6.70;94.00;;;;;;2064970;28;20084;-90
2021/11/04 01:23:02;;;;;;;10.80;6.30;;;6.60;94.00;;;;;;2061535;28;20054;-91
2021/11/04 01:24:02;;;;;;;9.93;6.35;;;6.60;94.10;;;;;;2052136;28;20075;-92
2021/11/04 01:25:04;;;;;;;10.70;6.97;;;6.60;94.20;;;;;;2073254;28;20038;-90
2021/11/04 01:26:05;;;;;;;10.25;5.95;;;6.60;94.20;;;;;;2074111;28;20030;-90
2021/11/04 01:27:06;;;;;;;15.05;7.00;;;6.60;94.20;;;;;;2066828;28;20046;-91
2021/11/04 01:28:08;;;;;;;14.63;6.55;;;6.60;94.20;;;;;;2066512;28;20027;-91
2021/11/04 01:29:09;;;;;;;15.95;6.07;;;6.70;94.20;;;;;;2067029;28;20050;-90
2021/11/04 01:30:10;;;;;;;15.00;6.45;;;6.70;94.20;;;;;;2066769;28;20034;-91
2021/11/04 01:31:11;;;;;;;12.55;7.47;;;6.70;94.20;;;;;;2067008;28;20435;-90
2021/11/04 01:32:11;;;;;;;12.57;6.30;;;6.70;94.10;;;;;;2058317;28;20031;-90
2021/11/04 01:33:12;;;;;;;12.68;6.15;;;6.70;94.10;;;;;;2061534;28;20039;-90
2021/11/04 01:34:13;;;;;;;10.68;6.20;;;6.70;94.40;;;;;;2072256;28;20038;-90
2021/11/04 01:35:14;;;;;;;15.38;6.05;;;6.70;94.10;;;;;;2066334;28;20034;-90
2021/11/04 01:36:14;;;;;;;11.75;6.43;;;6.70;94.10;;;;;;2068747;28;20133;-90
2021/11/04 01:37:15;;;;;;;16.05;6.28;;;6.80;94.10;;;;;;2074813;28;20038;-89
2021/11/04 01:38:18;;;;;;;14.20;6.28;;;6.70;94.10;;;;;;2065187;28;20026;-90
2021/11/04 01:39:19;;;;;;;10.77;6.22;;;6.80;94.10;;;;;;2065707;28;20135;-90
2021/11/04 01:40:20;;;;;;;15.07;6.40;;;6.80;94.10;;;;;;2074886;28;20432;-90
2021/11/04 01:41:20;;;;;;;23.77;6.60;;;6.80;94.10;;;;;;2074189;28;20074;-90
2021/11/04 01:42:21;;;;;;;13.82;6.35;;;6.80;94.10;;;;;;2074413;28;20034;-90
2021/11/04 01:43:22;;;;;;;12.45;6.53;;;6.80;94.10;;;;;;2065623;28;20073;-90
2021/11/04 01:44:22;;;;;;;12.32;6.28;;;6.80;94.10;;;;;;2057429;28;20039;-91
2021/11/04 01:45:23;;;;;;;10.88;6.10;;;6.80;94.10;;;;;;2065808;28;20133;-90
2021/11/04 01:46:25;;;;;;;11.57;6.28;;;6.80;94.10;;;;;;2065732;28;20026;-91
2021/11/04 01:47:25;;;;;;;15.00;7.00;;;6.80;94.10;;;;;;2057193;28;20038;-90
2021/11/04 01:48:26;;;;;;;10.25;6.07;;;6.70;94.10;;;;;;2049379;28;20039;-90
2021/11/04 01:49:27;;;;;;;11.18;6.78;;;6.70;94.10;;;;;;2049731;29;20517;-90
2021/11/04 01:50:29;;;;;;;15.80;6.38;;;6.70;94.20;;;;;;2057352;28;20047;-90
2021/11/04 01:51:29;;;;;;;10.90;6.90;;;6.70;94.20;;;;;;2063640;28;20041;-90
2021/11/04 01:52:30;;;;;;;10.93;6.38;;;6.70;94.20;;;;;;2057484;28;20042;-90
2021/11/04 01:53:31;;;;;;;12.77;6.22;;;6.70;94.20;;;;;;2047831;29;20498;-90
2021/11/04 01:54:32;;;;;;;10.88;6.28;;;6.70;94.20;;;;;;2051020;28;20050;-91
2021/11/04 01:55:32;;;;;;;10.95;6.22;;;6.60;94.20;;;;;;2066986;28;20045;-91
2021/11/04 01:56:40;;;;;;;9.93;6.43;;;6.60;94.20;;;;;;2063096;28;20045;-91
2021/11/04 01:57:41;;;;;;;11.65;6.95;;;6.70;94.30;;;;;;2077365;28;20036;-90
2021/11/04 01:58:42;;;;;;;12.95;6.80;;;6.70;94.30;;;;;;2056996;29;20040;-90
2021/11/04 01:59:42;;;;;;;9.68;6.47;;;6.70;94.20;;;;;;2057478;28;20047;-90
2021/11/04 02:00:43;;;;;;;12.27;6.88;;;6.70;94.20;;;;;;2065906;28;20110;-90
2021/11/04 02:01:44;;;;;;;11.18;6.88;;;6.70;94.20;;;;;;2071955;28;20050;-90
2021/11/04 02:02:48;;;;;;;13.75;7.40;;;6.80;94.20;;;;;;2081164;28;20054;-91
2021/11/04 02:03:58;;;;;;;11.07;6.78;;;6.70;94.20;;;;;;2089235;28;20022;-89
2021/11/04 02:05:02;;;;;;;11.02;6.68;;;6.80;94.20;;;;;;2078968;28;20063;-80
2021/11/04 02:06:10;;;;;;;12.48;6.32;;;6.80;94.20;;;;;;2083622;28;20018;-80
2021/11/04 02:07:46;;;;;;;10.73;6.60;;;6.80;94.20;;;;;;2084358;28;20022;-89
2021/11/04 02:09:01;;;;;;;11.05;6.85;;;6.80;94.20;;;;;;2066609;28;20100;-89
2021/11/04 02:10:18;;;;;;;13.63;6.78;;;6.80;94.10;;;;;;2075644;28;20030;-90
2021/11/04 02:11:22;;;;;;;11.10;6.78;;;6.80;94.10;;;;;;2062447;28;20133;-90
2021/11/04 02:12:32;;;;;;;10.63;6.53;;;6.80;94.10;;;;;;2060514;28;20037;-90
2021/11/04 02:13:41;;;;;;;11.13;7.13;;;6.90;94.10;;;;;;2067435;28;20022;-85
2021/11/04 02:14:44;;;;;;;10.02;6.68;;;6.90;94.10;;;;;;2076459;28;20054;-84
2021/11/04 02:15:47;;;;;;;11.32;7.32;;;6.90;94.10;;;;;;2066866;28;20559;-90
2021/11/04 02:16:49;;;;;;;10.52;7.13;;;6.90;94.10;;;;;;2073860;28;20037;-90
2021/11/04 02:17:51;;;;;;;11.50;7.15;;;6.90;94.10;;;;;;2067257;28;20106;-90
2021/11/04 02:18:55;;;;;;;10.88;7.07;;;6.90;94.10;;;;;;2060257;28;20058;-90
2021/11/04 02:19:58;;;;;;;10.57;6.53;;;6.90;94.10;;;;;;2075823;28;20038;-90
2021/11/04 02:21:26;;;;;;;11.85;7.25;;;6.90;94.10;;;;;;2077262;28;20069;-90
2021/11/04 02:22:27;;;;;;;12.55;7.75;;;6.90;94.00;;;;;;2081622;28;20053;-88
2021/11/04 02:23:48;;;;;;;11.88;7.57;;;6.90;94.00;;;;;;2075556;28;20054;-90
2021/11/04 02:25:15;;;;;;;12.43;7.63;;;6.90;94.00;;;;;;2076074;28;20056;-90
2021/11/04 02:26:19;;;;;;;12.20;7.63;;;6.90;94.00;;;;;;2082739;28;20105;-90
2021/11/04 02:27:20;;;;;;;11.27;7.35;;;6.90;94.00;;;;;;2078903;28;20033;-91
2021/11/04 02:28:21;;;;;;;12.07;7.78;;;6.90;94.00;;;;;;2065160;28;20038;-90
2021/11/04 02:29:22;;;;;;;13.40;7.32;;;6.90;94.00;;;;;;2050197;28;20031;-89
2021/11/04 02:30:25;;;;;;;11.75;7.50;;;6.90;94.00;;;;;;2050304;28;20035;-90
2021/11/04 02:31:26;;;;;;;12.73;7.80;;;6.90;94.00;;;;;;2058407;28;20033;-91
2021/11/04 02:32:27;;;;;;;12.32;7.90;;;6.90;94.30;;;;;;2072423;28;20044;-90
2021/11/04 02:33:28;;;;;;;12.23;7.85;;;6.90;94.00;;;;;;2074271;28;20045;-90
2021/11/04 02:34:29;;;;;;;12.25;7.75;;;6.80;94.00;;;;;;2073888;28;20074;-90
2021/11/04 02:35:30;;;;;;;12.60;7.95;;;6.80;94.00;;;;;;2065771;28;20042;-90
2021/11/04 02:36:32;;;;;;;13.05;8.63;;;6.90;94.10;;;;;;2057804;28;20402;-90
2021/11/04 02:37:33;;;;;;;13.05;8.40;;;6.80;94.00;;;;;;2066246;28;20041;-90
2021/11/04 02:38:35;;;;;;;13.25;8.75;;;6.80;94.00;;;;;;2066273;28;20034;-90
2021/11/04 02:39:36;;;;;;;12.88;8.18;;;6.80;94.00;;;;;;2060576;28;20069;-90
2021/11/04 02:40:37;;;;;;;15.35;9.20;;;6.80;94.00;;;;;;2064249;28;20041;-90
2021/11/04 02:41:38;;;;;;;13.15;8.55;;;6.80;94.10;;;;;;2074393;28;20456;-90
2021/11/04 02:42:39;;;;;;;13.65;8.85;;;6.80;94.10;;;;;;2070460;28;20436;-90
2021/11/04 02:43:41;;;;;;;15.77;9.20;;;6.80;94.30;;;;;;2074618;28;20045;-90
2021/11/04 02:44:42;;;;;;;14.38;9.05;;;6.80;94.10;;;;;;2073971;28;20037;-90
2021/11/04 02:45:43;;;;;;;14.85;9.48;;;6.80;94.10;;;;;;2076797;28;20037;-91
2021/11/04 02:46:43;;;;;;;13.63;9.13;;;6.80;94.10;;;;;;2073991;28;20038;-91
2021/11/04 02:47:44;;;;;;;13.70;9.18;;;6.80;94.10;;;;;;2065703;28;20069;-90
2021/11/04 02:48:46;;;;;;;14.57;9.10;;;6.80;94.10;;;;;;2065523;28;20381;-90
2021/11/04 02:49:48;;;;;;;15.15;9.68;;;6.80;94.10;;;;;;2061536;28;20037;-90
2021/11/04 02:50:53;;;;;;;15.70;9.63;;;6.90;94.10;;;;;;2072973;28;20060;-90
2021/11/04 02:51:54;;;;;;;15.40;10.00;;;6.80;94.10;;;;;;2069049;28;20030;-90
2021/11/04 02:52:55;;;;;;;14.65;9.95;;;6.90;94.10;;;;;;2058696;28;20069;-90
2021/11/04 02:53:56;;;;;;;14.38;9.20;;;6.90;94.10;;;;;;2065844;28;20579;-91
2021/11/04 02:55:04;;;;;;;14.68;9.80;;;6.90;94.10;;;;;;2062711;28;20039;-90
2021/11/04 02:56:05;;;;;;;16.65;10.43;;;6.90;94.10;;;;;;2058743;28;20125;-90
2021/11/04 02:57:05;;;;;;;15.48;9.98;;;6.90;94.10;;;;;;2057630;28;20039;-90
2021/11/04 02:58:07;;;;;;;15.68;10.40;;;6.90;94.10;;;;;;2061772;28;20524;-91
2021/11/04 02:59:16;;;;;;;15.88;9.93;;;6.90;94.00;;;;;;2067759;28;20037;-91
2021/11/04 03:00:18;;;;;;;15.38;9.95;;;6.90;94.00;;;;;;2070538;28;20045;-91
2021/11/04 03:01:19;;;;;;;14.35;9.38;;;6.90;94.00;;;;;;2071385;28;20038;-90
2021/11/04 03:02:20;;;;;;;14.68;10.00;;;6.90;94.00;;;;;;2073735;28;20076;-90
2021/11/04 03:03:21;;;;;;;15.60;10.00;;;6.90;94.00;;;;;;2069755;28;20121;-91
2021/11/04 03:04:22;;;;;;;15.45;10.52;;;6.90;94.00;;;;;;2065208;28;20113;-91
2021/11/04 03:05:23;;;;;;;15.10;9.95;;;6.90;94.00;;;;;;2064824;28;20128;-91
2021/11/04 03:06:23;;;;;;;16.52;10.52;;;6.90;94.10;;;;;;2058902;28;20096;-91
2021/11/04 03:07:24;;;;;;;15.00;9.70;;;6.90;94.10;;;;;;2060390;28;20080;-89
2021/11/04 03:08:25;;;;;;;14.88;9.55;;;6.90;94.10;;;;;;2073431;28;20042;-90
2021/11/04 03:09:25;;;;;;;15.70;10.50;;;6.90;94.10;;;;;;2072285;28;20069;-90
2021/11/04 03:10:26;;;;;;;14.98;9.82;;;6.90;94.10;;;;;;2064043;28;20026;-91
2021/11/04 03:11:27;;;;;;;14.73;9.10;;;6.90;94.30;;;;;;2062111;28;20038;-90
2021/11/04 03:12:28;;;;;;;15.57;10.13;;;6.90;94.10;;;;;;2073138;28;20030;-90
2021/11/04 03:13:28;;;;;;;15.82;9.93;;;6.90;94.10;;;;;;2065658;28;20038;-90
2021/11/04 03:14:31;;;;;;;14.20;9.77;;;6.90;94.10;;;;;;2065643;28;20133;-91
2021/11/04 03:15:37;;;;;;;14.05;9.60;;;6.90;94.10;;;;;;2066853;28;20038;-91
2021/11/04 03:16:41;;;;;;;13.75;9.05;;;6.90;94.00;;;;;;2066815;28;20081;-90
2021/11/04 03:17:42;;;;;;;14.48;9.57;;;7.00;94.10;;;;;;2072163;28;20113;-90
2021/11/04 03:18:43;;;;;;;14.27;9.32;;;6.90;94.00;;;;;;2065652;28;20038;-91
2021/11/04 03:19:45;;;;;;;14.50;9.40;;;7.00;94.10;;;;;;2065205;28;20423;-90
2021/11/04 03:20:46;;;;;;;14.75;9.38;;;6.90;94.00;;;;;;2055656;28;20061;-90
2021/11/04 03:21:51;;;;;;;13.93;9.35;;;7.00;94.10;;;;;;2063663;28;20041;-91
2021/11/04 03:22:53;;;;;;;15.13;9.80;;;7.00;94.10;;;;;;2055378;28;20046;-90
2021/11/04 03:23:53;;;;;;;13.60;8.93;;;7.00;94.10;;;;;;2065601;28;20047;-90
2021/11/04 03:24:54;;;;;;;15.27;9.90;;;7.00;94.10;;;;;;2057457;28;20106;-91
2021/11/04 03:25:57;;;;;;;14.95;9.95;;;7.00;94.10;;;;;;2073162;28;20038;-90
2021/11/04 03:27:05;;;;;;;14.98;9.48;;;7.00;94.10;;;;;;2074302;28;20030;-90
2021/11/04 03:28:06;;;;;;;14.32;9.82;;;7.00;94.10;;;;;;2074548;28;20034;-90
2021/11/04 03:29:08;;;;;;;14.95;9.68;;;7.00;94.10;;;;;;2073526;28;20034;-90
2021/11/04 03:30:11;;;;;;;14.65;9.32;;;7.00;94.10;;;;;;2066455;28;20057;-90
2021/11/04 03:31:13;;;;;;;15.98;9.50;;;7.00;94.10;;;;;;2072445;28;20488;-90
2021/11/04 03:32:17;;;;;;;17.08;9.90;;;7.00;94.10;;;;;;2073962;28;20129;-90
2021/11/04 03:33:18;;;;;;;15.07;9.70;;;7.00;94.10;;;;;;2073483;28;20030;-91
2021/11/04 03:34:19;;;;;;;15.20;9.77;;;7.00;94.10;;;;;;2061100;28;20094;-91
2021/11/04 03:35:20;;;;;;;16.95;10.63;;;7.00;94.10;;;;;;2065549;28;20062;-90
2021/11/04 03:36:23;;;;;;;16.10;10.25;;;7.10;94.10;;;;;;2071094;28;20038;-90
2021/11/04 03:37:27;;;;;;;15.55;9.93;;;7.00;94.10;;;;;;2067463;28;20038;-90
2021/11/04 03:38:29;;;;;;;15.38;9.90;;;7.00;94.10;;;;;;2072206;28;20027;-91
2021/11/04 03:39:30;;;;;;;15.35;10.27;;;7.10;94.10;;;;;;2065205;28;20043;-91
2021/11/04 03:40:31;;;;;;;16.15;10.02;;;7.10;94.10;;;;;;2059667;28;20055;-92
2021/11/04 03:41:34;;;;;;;15.98;10.35;;;7.10;94.10;;;;;;2060616;28;20115;-91
2021/11/04 03:42:35;;;;;;;15.90;10.38;;;7.10;94.10;;;;;;2068082;28;20025;-85
2021/11/04 03:43:37;;;;;;;14.98;9.88;;;7.10;94.10;;;;;;2075961;28;20053;-81
2021/11/04 03:44:40;;;;;;;16.55;10.23;;;7.10;94.10;;;;;;2084082;28;20018;-90
2021/11/04 03:45:41;;;;;;;16.25;10.38;;;7.10;94.10;;;;;;2083432;28;20025;-90
2021/11/04 03:46:43;;;;;;;15.90;10.02;;;7.10;94.10;;;;;;2082461;28;20049;-90
2021/11/04 03:47:44;;;;;;;18.10;10.68;;;7.10;94.10;;;;;;2075323;28;20019;-79
2021/11/04 03:48:45;;;;;;;16.30;10.85;;;7.10;94.10;;;;;;2081690;28;20029;-84
2021/11/04 03:49:51;;;;;;;15.93;10.40;;;7.10;94.10;;;;;;2065733;28;20038;-89
2021/11/04 03:50:54;;;;;;;16.67;10.38;;;7.10;94.10;;;;;;2065823;28;20554;-90
2021/11/04 03:51:55;;;;;;;17.33;10.93;;;7.10;94.10;;;;;;2066742;28;20025;-90
2021/11/04 03:52:56;;;;;;;15.50;10.05;;;7.20;94.10;;;;;;2065341;28;20034;-90
2021/11/04 03:53:57;;;;;;;18.00;11.10;;;7.20;94.00;;;;;;2060970;28;20493;-90
2021/11/04 03:54:58;;;;;;;16.65;10.88;;;7.20;94.00;;;;;;2049407;28;20051;-90
2021/11/04 03:55:59;;;;;;;17.63;11.27;;;7.10;94.00;;;;;;2041518;28;20032;-90
2021/11/04 03:57:00;;;;;;;17.95;10.80;;;7.10;94.00;;;;;;2062300;28;20163;-90
2021/11/04 03:58:01;;;;;;;17.90;11.23;;;7.10;94.00;;;;;;2073414;28;20038;-90
2021/11/04 03:59:03;;;;;;;18.00;11.45;;;7.20;94.00;;;;;;2065664;28;20093;-91
2021/11/04 04:00:04;;;;;;;18.00;10.98;;;7.20;94.00;;;;;;2071614;28;20141;-91
2021/11/04 04:01:05;;;;;;;17.70;10.80;;;7.10;94.00;;;;;;2073680;28;20452;-90
2021/11/04 04:02:09;;;;;;;19.33;11.10;;;7.20;94.10;;;;;;2068432;28;20073;-90
2021/11/04 04:03:10;;;;;;;19.65;11.68;;;7.20;94.10;;;;;;2065994;28;20026;-89
2021/11/04 04:04:11;;;;;;;20.58;12.52;;;7.20;94.10;;;;;;2068898;28;20042;-89
2021/11/04 04:05:12;;;;;;;19.45;12.07;;;7.20;94.10;;;;;;2058367;28;20058;-91
2021/11/04 04:06:13;;;;;;;22.05;12.75;;;7.20;94.10;;;;;;2057773;28;20592;-90
2021/11/04 04:07:14;;;;;;;21.50;12.65;;;7.20;94.00;;;;;;2079617;28;20061;-90
2021/11/04 04:08:14;;;;;;;20.52;12.02;;;7.20;94.00;;;;;;2080420;28;20037;-90
2021/11/04 04:09:15;;;;;;;23.58;12.82;;;7.20;94.00;;;;;;2049102;28;20514;-88
2021/11/04 04:10:16;;;;;;;20.70;12.57;;;7.20;94.00;;;;;;2057148;28;20038;-91
2021/11/04 04:11:17;;;;;;;21.42;12.73;;;7.20;94.00;;;;;;2058893;28;20532;-90
2021/11/04 04:12:17;;;;;;;22.25;13.63;;;7.30;94.10;;;;;;2050701;28;20097;-90
2021/11/04 04:13:19;;;;;;;23.10;13.95;;;7.30;94.10;;;;;;2073909;28;20061;-90
2021/11/04 04:14:22;;;;;;;26.00;13.63;;;7.30;94.10;;;;;;2075082;28;20038;-90
2021/11/04 04:15:22;;;;;;;25.58;13.70;;;7.30;94.10;;;;;;2073991;28;20038;-90
2021/11/04 04:16:24;;;;;;;25.05;14.30;;;7.30;94.00;;;;;;2074364;28;20037;-89
2021/11/04 04:17:25;;;;;;;25.77;15.15;;;7.30;94.00;;;;;;2073187;28;20038;-89
2021/11/04 04:18:25;;;;;;;27.52;15.10;;;7.30;94.00;;;;;;2074650;28;20040;-90
2021/11/04 04:19:26;;;;;;;25.10;13.85;;;7.30;94.00;;;;;;2075236;28;20046;-90
2021/11/04 04:20:27;;;;;;;28.17;16.17;;;7.30;94.00;;;;;;2072763;28;20053;-90
2021/11/04 04:21:28;;;;;;;25.95;14.45;;;7.30;94.00;;;;;;2058596;28;20035;-89
2021/11/04 04:22:28;;;;;;;28.33;15.93;;;7.30;94.10;;;;;;2058203;28;20066;-90
2021/11/04 04:23:29;;;;;;;27.90;15.70;;;7.30;94.30;;;;;;2061222;28;20595;-90
2021/11/04 04:24:30;;;;;;;27.77;15.32;;;7.30;94.00;;;;;;2066701;28;20046;-90
2021/11/04 04:25:31;;;;;;;28.83;15.65;;;7.30;94.10;;;;;;2067565;28;20064;-90
2021/11/04 04:26:33;;;;;;;27.95;15.55;;;7.30;94.10;;;;;;2067232;28;20054;-91
2021/11/04 04:27:33;;;;;;;28.10;15.68;;;7.40;94.10;;;;;;2067654;28;20042;-90
2021/11/04 04:28:35;;;;;;;28.98;15.48;;;7.40;94.10;;;;;;2069547;28;20027;-90
2021/11/04 04:29:35;;;;;;;27.00;15.65;;;7.30;94.10;;;;;;2072936;28;20045;-91
2021/11/04 04:30:36;;;;;;;27.80;15.95;;;7.30;94.10;;;;;;2079462;28;20038;-90
2021/11/04 04:31:37;;;;;;;26.80;15.05;;;7.30;94.10;;;;;;2085325;28;20014;-87
2021/11/04 04:32:37;;;;;;;28.15;15.75;;;7.30;94.10;;;;;;2073631;28;20034;-90
2021/11/04 04:33:38;;;;;;;26.17;15.60;;;7.40;94.10;;;;;;2067028;28;20129;-90
2021/11/04 04:34:40;;;;;;;27.48;15.18;;;7.40;94.10;;;;;;2074686;28;20041;-90
2021/11/04 04:35:41;;;;;;;30.60;15.70;;;7.40;94.10;;;;;;2073693;28;20072;-90
2021/11/04 04:36:41;;;;;;;30.25;16.80;;;7.30;94.10;;;;;;2062270;28;20034;-90
2021/11/04 04:37:42;;;;;;;27.15;15.73;;;7.40;94.10;;;;;;2063600;28;20080;-91
2021/11/04 04:38:43;;;;;;;27.45;16.23;;;7.40;94.10;;;;;;2072591;28;20042;-91
2021/11/04 04:39:43;;;;;;;28.70;15.38;;;7.30;94.10;;;;;;2068874;28;20051;-90
2021/11/04 04:40:44;;;;;;;26.58;15.07;;;7.30;94.10;;;;;;2074309;28;20042;-90
2021/11/04 04:41:45;;;;;;;27.70;14.90;;;7.30;94.10;;;;;;2074706;28;20034;-90
2021/11/04 04:42:46;;;;;;;29.80;16.35;;;7.40;94.10;;;;;;2071858;28;20507;-91
2021/11/04 04:43:47;;;;;;;27.77;14.95;;;7.40;94.10;;;;;;2066638;28;20039;-90
2021/11/04 04:44:48;;;;;;;31.63;16.55;;;7.40;94.10;;;;;;2066648;28;20385;-91
2021/11/04 04:45:49;;;;;;;28.52;16.35;;;7.40;94.10;;;;;;2066365;28;20039;-90
2021/11/04 04:46:50;;;;;;;27.25;14.75;;;7.30;94.10;;;;;;2066375;28;20113;-91
2021/11/04 04:47:51;;;;;;;27.40;15.40;;;7.30;94.10;;;;;;2063865;28;20038;-90
2021/11/04 04:48:54;;;;;;;27.77;15.40;;;7.40;94.10;;;;;;2069903;28;20123;-90
2021/11/04 04:49:58;;;;;;;27.73;15.60;;;7.40;94.10;;;;;;2066377;28;20519;-90
2021/11/04 04:50:59;;;;;;;26.10;15.10;;;7.30;94.10;;;;;;2066776;28;20096;-89
2021/11/04 04:51:59;;;;;;;25.27;14.95;;;7.40;94.10;;;;;;2058504;28;20034;-91
2021/11/04 04:53:00;;;;;;;26.25;15.57;;;7.40;94.20;;;;;;2073705;28;20026;-90
2021/11/04 04:54:01;;;;;;;27.02;14.75;;;7.40;94.10;;;;;;2079259;28;20081;-90
2021/11/04 04:55:03;;;;;;;24.73;15.20;;;7.40;94.20;;;;;;2066459;28;20039;-91
2021/11/04 04:56:04;;;;;;;25.73;14.90;;;7.40;94.20;;;;;;2058371;28;20050;-90
2021/11/04 04:57:05;;;;;;;23.52;13.90;;;7.40;94.20;;;;;;2066312;28;20510;-90
2021/11/04 04:58:06;;;;;;;26.58;15.43;;;7.40;94.10;;;;;;2064794;28;20043;-90
2021/11/04 04:59:06;;;;;;;27.77;15.63;;;7.40;94.10;;;;;;2065897;28;20034;-91
2021/11/04 05:00:12;;;;;;;28.98;15.35;;;7.40;94.20;;;;;;2053251;28;20412;-90
2021/11/04 05:01:13;;;;;;;26.45;14.90;;;7.40;94.20;;;;;;2058898;28;20125;-90
2021/11/04 05:02:13;;;;;;;26.60;14.63;;;7.30;94.20;;;;;;2075072;28;20472;-90
2021/11/04 05:03:14;;;;;;;26.92;14.65;;;7.30;94.10;;;;;;2078529;28;20037;-90
2021/11/04 05:04:15;;;;;;;28.08;16.00;;;7.30;94.10;;;;;;2059226;28;20418;-90
2021/11/04 05:05:16;;;;;;;26.70;15.45;;;7.40;94.20;;;;;;2065381;28;20053;-90
2021/11/04 05:06:16;;;;;;;26.10;14.52;;;7.30;94.20;;;;;;2066486;28;20031;-90
2021/11/04 05:07:18;;;;;;;25.63;14.50;;;7.30;94.20;;;;;;2067044;28;20078;-91
2021/11/04 05:08:19;;;;;;;23.85;14.38;;;7.30;94.20;;;;;;2074633;28;20555;-91
2021/11/04 05:09:19;;;;;;;29.02;15.75;;;7.30;94.20;;;;;;2058003;28;20049;-91
2021/11/04 05:10:20;;;;;;;23.63;14.48;;;7.30;94.50;;;;;;2066349;28;20120;-90
2021/11/04 05:11:21;;;;;;;25.48;14.75;;;7.30;94.20;;;;;;2072735;28;20087;-91
2021/11/04 05:12:21;;;;;;;24.08;14.30;;;7.30;94.20;;;;;;2066235;28;20034;-92
2021/11/04 05:13:23;;;;;;;25.58;15.13;;;7.30;94.20;;;;;;2066093;28;20147;-91
2021/11/04 05:14:24;;;;;;;24.98;14.57;;;7.30;94.50;;;;;;2068035;28;20053;-92
2021/11/04 05:15:25;;;;;;;23.80;14.70;;;7.30;94.20;;;;;;2066355;28;20527;-91
2021/11/04 05:16:25;;;;;;;23.65;14.20;;;7.30;94.20;;;;;;2063903;28;20045;-91
2021/11/04 05:17:26;;;;;;;25.02;14.63;;;7.30;94.20;;;;;;2059778;28;20134;-90
2021/11/04 05:18:27;;;;;;;25.83;14.73;;;7.30;94.20;;;;;;2058249;28;20062;-91
2021/11/04 05:19:27;;;;;;;22.80;14.23;;;7.30;94.20;;;;;;2058167;28;20501;-91
2021/11/04 05:20:29;;;;;;;24.67;13.70;;;7.30;94.20;;;;;;2055380;28;20045;-91